Time;durP1;ratioP1;P1;durP2;ratioP2;P2;SDS_P1;SDS_P2;PMS_P1;PMS_P2;Temp;Humidity;BMP_temperature;BMP_pressure;BME280_temperature;BME280_humidity;BME280_pressure;Samples;Min_cycle;Max_cycle;Signal;HPM_P1;HPM_P2
2022/08/24 00:02:16;;;;;;;3.10;2.33;;;;;;;;;;4962390;28;20035;-77
2022/08/24 00:04:42;;;;;;;2.95;2.08;;;;;;;;;;4959941;28;20118;-77
2022/08/24 00:07:08;;;;;;;4.32;2.30;;;;;;;;;;4961122;28;20030;-77
2022/08/24 00:09:35;;;;;;;2.67;2.00;;;;;;;;;;4960654;28;20065;-78
2022/08/24 00:12:02;;;;;;;4.15;2.33;;;;;;;;;;4962158;28;20046;-78
2022/08/24 00:14:28;;;;;;;2.85;2.30;;;;;;;;;;4962265;28;20054;-78
2022/08/24 00:16:54;;;;;;;3.75;2.17;;;;;;;;;;4959827;28;20585;-78
2022/08/24 00:19:20;;;;;;;2.75;2.08;;;;;;;;;;4976448;28;20133;-78
2022/08/24 00:21:46;;;;;;;2.75;2.30;;;;;;;;;;4966061;28;20341;-78
2022/08/24 00:24:13;;;;;;;2.90;2.17;;;;;;;;;;4964309;28;20069;-78
2022/08/24 00:26:39;;;;;;;5.18;2.38;;;;;;;;;;4966008;28;20029;-78
2022/08/24 00:29:05;;;;;;;4.13;2.22;;;;;;;;;;4965013;28;20117;-77
2022/08/24 00:31:32;;;;;;;3.90;2.47;;;;;;;;;;4965367;28;20057;-77
2022/08/24 00:33:58;;;;;;;3.78;2.92;;;;;;;;;;4967972;28;20027;-78
2022/08/24 00:36:24;;;;;;;3.88;2.72;;;;;;;;;;4966793;28;20058;-77
2022/08/24 00:38:50;;;;;;;3.03;2.72;;;;;;;;;;4970567;28;20043;-77
2022/08/24 00:41:17;;;;;;;3.72;3.33;;;;;;;;;;4968170;28;20039;-78
2022/08/24 00:44:00;;;;;;;5.05;4.55;;;;;;;;;;4973365;28;20031;-79
2022/08/24 00:46:42;;;;;;;4.80;4.15;;;;;;;;;;4976977;28;20031;-78
2022/08/24 00:49:11;;;;;;;5.13;4.57;;;;;;;;;;4967927;28;20379;-78
2022/08/24 00:51:46;;;;;;;6.05;4.13;;;;;;;;;;4971714;28;20612;-78
2022/08/24 00:54:14;;;;;;;6.25;4.40;;;;;;;;;;4969889;28;20026;-78
2022/08/24 00:56:43;;;;;;;4.55;4.13;;;;;;;;;;4973062;28;20031;-78
2022/08/24 00:59:11;;;;;;;5.10;3.80;;;;;;;;;;4970821;28;20456;-77
2022/08/24 01:01:38;;;;;;;4.05;3.17;;;;;;;;;;4971295;28;20031;-77
2022/08/24 01:04:05;;;;;;;4.15;3.45;;;;;;;;;;4972148;28;20090;-78
2022/08/24 01:06:32;;;;;;;3.92;3.15;;;;;;;;;;4973876;28;20063;-78
2022/08/24 01:08:59;;;;;;;5.40;3.00;;;;;;;;;;4975248;28;20062;-78
2022/08/24 01:11:29;;;;;;;4.22;3.17;;;;;;;;;;4975790;28;20033;-76
2022/08/24 01:13:56;;;;;;;2.97;2.67;;;;;;;;;;4977583;28;20532;-76
2022/08/24 01:19:13;;;;;;;3.10;2.42;;;;;;;;;;4970528;28;20050;-75
2022/08/24 01:22:05;;;;;;;3.55;2.33;;;;;;;;;;4973669;28;20027;-76
2022/08/24 01:24:32;;;;;;;2.92;2.05;;;;;;;;;;4982528;28;20094;-75
2022/08/24 01:26:58;;;;;;;5.93;2.70;;;;;;;;;;4977431;28;20387;-77
2022/08/24 01:29:26;;;;;;;2.92;2.33;;;;;;;;;;4972332;28;20043;-77
2022/08/24 01:31:52;;;;;;;2.72;2.10;;;;;;;;;;4976733;28;20038;-77
2022/08/24 01:34:20;;;;;;;3.08;1.73;;;;;;;;;;4974316;28;20038;-77
2022/08/24 01:36:53;;;;;;;3.30;2.22;;;;;;;;;;4973095;28;20030;-76
2022/08/24 01:39:21;;;;;;;2.58;1.90;;;;;;;;;;4974585;28;20035;-77
2022/08/24 01:41:48;;;;;;;2.20;1.88;;;;;;;;;;4977385;28;20053;-78
2022/08/24 01:44:14;;;;;;;1.70;1.60;;;;;;;;;;4977746;28;20033;-77
2022/08/24 01:46:44;;;;;;;3.40;2.45;;;;;;;;;;4975185;28;20042;-78
2022/08/24 01:49:11;;;;;;;3.05;1.90;;;;;;;;;;4974775;28;20284;-76
2022/08/24 01:51:37;;;;;;;1.73;1.63;;;;;;;;;;4976427;28;20042;-76
2022/08/24 01:54:04;;;;;;;2.05;1.63;;;;;;;;;;4973785;28;20023;-77
2022/08/24 01:56:31;;;;;;;1.77;1.67;;;;;;;;;;4977486;28;20078;-78
2022/08/24 01:58:58;;;;;;;2.70;1.90;;;;;;;;;;4977588;28;20337;-78
2022/08/24 02:01:25;;;;;;;2.10;1.80;;;;;;;;;;4975980;28;20030;-77
2022/08/24 02:03:51;;;;;;;2.33;1.80;;;;;;;;;;4975614;28;20026;-78
2022/08/24 02:06:18;;;;;;;2.17;1.90;;;;;;;;;;4973496;28;20031;-77
2022/08/24 02:08:44;;;;;;;2.00;1.80;;;;;;;;;;4974381;28;20030;-76
2022/08/24 02:11:10;;;;;;;1.98;1.60;;;;;;;;;;4975571;28;20047;-76
2022/08/24 02:13:38;;;;;;;2.13;1.67;;;;;;;;;;4975981;28;20263;-76
2022/08/24 02:16:04;;;;;;;1.70;1.60;;;;;;;;;;4975446;28;20027;-77
2022/08/24 02:18:32;;;;;;;2.33;1.77;;;;;;;;;;4972250;28;20565;-77
2022/08/24 02:20:58;;;;;;;2.55;1.92;;;;;;;;;;4973757;28;20234;-77
2022/08/24 02:23:24;;;;;;;1.90;1.70;;;;;;;;;;4972615;28;20034;-78
2022/08/24 02:25:51;;;;;;;2.13;1.90;;;;;;;;;;4975075;28;20043;-76
2022/08/24 02:28:19;;;;;;;2.50;1.80;;;;;;;;;;4977971;28;20034;-77
2022/08/24 02:30:45;;;;;;;4.35;1.88;;;;;;;;;;4975244;28;20035;-76
2022/08/24 02:33:12;;;;;;;3.35;2.20;;;;;;;;;;4975199;28;20030;-76
2022/08/24 02:35:38;;;;;;;2.75;1.80;;;;;;;;;;4973599;28;20367;-76
2022/08/24 02:38:05;;;;;;;2.03;1.70;;;;;;;;;;4971984;28;20026;-78
2022/08/24 02:40:31;;;;;;;3.72;1.88;;;;;;;;;;4974035;28;20038;-75
2022/08/24 02:42:57;;;;;;;3.17;1.92;;;;;;;;;;4973228;28;20199;-75
2022/08/24 02:45:23;;;;;;;2.40;1.70;;;;;;;;;;4973912;28;20042;-77
2022/08/24 02:47:50;;;;;;;2.97;1.80;;;;;;;;;;4970587;28;20118;-75
2022/08/24 02:50:16;;;;;;;2.13;1.92;;;;;;;;;;4974234;28;20123;-75
2022/08/24 02:52:43;;;;;;;4.40;2.03;;;;;;;;;;4970660;28;20058;-76
2022/08/24 02:55:11;;;;;;;3.83;1.85;;;;;;;;;;4971509;28;20026;-76
2022/08/24 02:57:37;;;;;;;2.53;1.67;;;;;;;;;;4970124;28;20031;-75
2022/08/24 03:00:04;;;;;;;2.80;2.53;;;;;;;;;;4968738;28;20121;-76
2022/08/24 03:02:31;;;;;;;2.63;2.03;;;;;;;;;;4968017;28;20069;-77
2022/08/24 03:04:57;;;;;;;4.25;2.00;;;;;;;;;;4973032;28;20134;-76
2022/08/24 03:07:23;;;;;;;4.55;2.20;;;;;;;;;;4965154;28;20118;-76
2022/08/24 03:09:49;;;;;;;3.42;2.65;;;;;;;;;;4965477;28;20066;-77
2022/08/24 03:12:16;;;;;;;3.38;2.58;;;;;;;;;;4967158;28;20567;-77
2022/08/24 03:14:42;;;;;;;5.95;2.80;;;;;;;;;;4973763;28;20042;-77
2022/08/24 03:17:08;;;;;;;5.13;2.55;;;;;;;;;;4980290;28;20535;-77
2022/08/24 03:19:35;;;;;;;5.28;2.50;;;;;;;;;;4973264;28;20426;-77
2022/08/24 03:22:01;;;;;;;3.40;2.42;;;;;;;;;;4969729;28;20037;-76
2022/08/24 03:24:27;;;;;;;3.15;2.50;;;;;;;;;;4971130;28;20037;-77
2022/08/24 03:26:53;;;;;;;5.32;2.97;;;;;;;;;;4961767;28;20037;-77
2022/08/24 03:29:19;;;;;;;4.68;2.35;;;;;;;;;;4976134;28;20039;-77
2022/08/24 03:31:45;;;;;;;2.60;2.40;;;;;;;;;;4982631;28;20425;-77
2022/08/24 03:34:15;;;;;;;3.58;2.08;;;;;;;;;;4973149;28;20481;-78
2022/08/24 03:36:45;;;;;;;2.90;2.10;;;;;;;;;;4970880;28;20118;-78
2022/08/24 03:39:11;;;;;;;3.50;2.00;;;;;;;;;;4979945;28;20023;-76
2022/08/24 03:41:37;;;;;;;3.40;2.00;;;;;;;;;;4971063;28;21263;-76
2022/08/24 03:44:04;;;;;;;4.25;2.25;;;;;;;;;;4972224;28;20055;-76
2022/08/24 03:46:35;;;;;;;3.65;2.30;;;;;;;;;;4971337;28;20074;-76
2022/08/24 03:49:03;;;;;;;3.22;2.00;;;;;;;;;;4975035;28;20034;-77
2022/08/24 03:51:29;;;;;;;3.60;2.08;;;;;;;;;;4969387;28;20054;-78
2022/08/24 03:53:56;;;;;;;3.28;2.30;;;;;;;;;;4976053;28;20103;-77
2022/08/24 03:56:22;;;;;;;3.40;2.00;;;;;;;;;;4972618;28;20042;-76
2022/08/24 03:58:48;;;;;;;3.33;2.40;;;;;;;;;;4967377;28;20038;-76
2022/08/24 04:01:16;;;;;;;2.22;2.03;;;;;;;;;;4967606;28;20366;-77
2022/08/24 04:03:43;;;;;;;4.70;2.28;;;;;;;;;;4971159;28;20499;-77
2022/08/24 04:06:10;;;;;;;4.25;2.65;;;;;;;;;;4976521;28;20045;-77
2022/08/24 04:08:36;;;;;;;4.05;2.30;;;;;;;;;;4972674;28;20481;-77
2022/08/24 04:11:02;;;;;;;3.72;2.05;;;;;;;;;;4971292;28;20033;-76
2022/08/24 04:13:30;;;;;;;4.35;2.17;;;;;;;;;;4966082;28;20126;-75
2022/08/24 04:16:04;;;;;;;3.45;2.20;;;;;;;;;;4970193;28;20678;-77
2022/08/24 04:18:31;;;;;;;2.88;2.08;;;;;;;;;;4967200;28;20039;-76
2022/08/24 04:20:57;;;;;;;3.90;2.25;;;;;;;;;;4968366;28;20038;-77
2022/08/24 04:23:23;;;;;;;4.38;2.10;;;;;;;;;;4971940;28;20037;-77
2022/08/24 04:25:49;;;;;;;2.67;2.00;;;;;;;;;;4968913;28;20026;-76
2022/08/24 04:28:19;;;;;;;5.95;2.20;;;;;;;;;;4967365;28;20050;-76
2022/08/24 04:30:50;;;;;;;2.88;2.28;;;;;;;;;;4970619;28;20037;-78
2022/08/24 04:33:17;;;;;;;2.80;2.28;;;;;;;;;;4970881;28;20027;-76
2022/08/24 04:35:46;;;;;;;6.53;2.30;;;;;;;;;;4972070;28;20062;-77
2022/08/24 04:38:13;;;;;;;2.67;2.00;;;;;;;;;;4973484;28;20051;-77
2022/08/24 04:40:40;;;;;;;4.35;2.30;;;;;;;;;;4976337;28;20102;-77
2022/08/24 04:43:07;;;;;;;3.42;2.33;;;;;;;;;;4980373;28;20046;-76
2022/08/24 04:45:33;;;;;;;4.88;2.05;;;;;;;;;;4979802;28;20038;-76
2022/08/24 04:47:59;;;;;;;2.50;2.17;;;;;;;;;;4977215;28;20031;-77
2022/08/24 04:50:25;;;;;;;4.30;2.33;;;;;;;;;;4969862;28;20042;-77
2022/08/24 04:52:52;;;;;;;3.15;2.65;;;;;;;;;;4971302;28;20445;-77
2022/08/24 04:55:18;;;;;;;3.97;2.67;;;;;;;;;;4968789;28;20090;-77
2022/08/24 04:57:44;;;;;;;6.18;2.45;;;;;;;;;;4968205;28;20035;-77
2022/08/24 05:00:10;;;;;;;5.30;3.20;;;;;;;;;;4977727;28;20030;-76
2022/08/24 05:02:38;;;;;;;2.33;2.13;;;;;;;;;;4974713;28;20023;-77
2022/08/24 05:05:06;;;;;;;4.07;2.38;;;;;;;;;;4976777;28;20090;-77
2022/08/24 05:07:32;;;;;;;3.50;2.22;;;;;;;;;;4978263;28;20093;-78
2022/08/24 05:09:58;;;;;;;3.35;2.40;;;;;;;;;;4977921;28;20524;-77
2022/08/24 05:12:25;;;;;;;4.93;2.45;;;;;;;;;;4974222;28;20031;-76
2022/08/24 05:14:51;;;;;;;5.68;2.70;;;;;;;;;;4975924;28;20045;-76
2022/08/24 05:17:18;;;;;;;4.93;2.00;;;;;;;;;;4974735;28;20066;-76
2022/08/24 05:19:44;;;;;;;5.03;3.55;;;;;;;;;;4976471;28;20030;-77
2022/08/24 05:22:10;;;;;;;3.75;2.45;;;;;;;;;;4970506;28;20019;-77
2022/08/24 05:24:36;;;;;;;3.60;2.50;;;;;;;;;;4972801;28;20078;-77
2022/08/24 05:27:02;;;;;;;3.67;2.50;;;;;;;;;;4969294;28;20086;-76
2022/08/24 05:29:32;;;;;;;10.63;2.55;;;;;;;;;;4973954;28;20489;-80
2022/08/24 05:31:58;;;;;;;4.65;2.50;;;;;;;;;;4973463;28;20208;-77
2022/08/24 05:34:25;;;;;;;3.47;2.55;;;;;;;;;;4970072;28;20034;-77
2022/08/24 05:36:51;;;;;;;4.82;2.47;;;;;;;;;;4969152;28;20426;-77
2022/08/24 05:39:17;;;;;;;2.97;2.30;;;;;;;;;;4974620;28;20085;-76
2022/08/24 05:41:45;;;;;;;3.20;2.30;;;;;;;;;;4969831;28;20030;-76
2022/08/24 05:44:11;;;;;;;2.97;2.13;;;;;;;;;;4983215;28;20023;-76
2022/08/24 05:46:38;;;;;;;3.10;2.20;;;;;;;;;;4981289;28;20030;-77
2022/08/24 05:49:04;;;;;;;2.90;2.45;;;;;;;;;;4974784;28;20030;-77
2022/08/24 05:51:30;;;;;;;3.67;2.30;;;;;;;;;;4973065;28;20031;-77
2022/08/24 05:53:58;;;;;;;4.22;2.50;;;;;;;;;;4972398;28;20433;-77
2022/08/24 05:56:24;;;;;;;3.55;2.45;;;;;;;;;;4970085;28;20031;-78
2022/08/24 05:58:50;;;;;;;4.30;3.00;;;;;;;;;;4976522;28;20053;-77
2022/08/24 06:01:18;;;;;;;2.97;2.20;;;;;;;;;;4975751;28;20380;-77
2022/08/24 06:03:45;;;;;;;5.40;2.60;;;;;;;;;;4971382;28;20027;-77
2022/08/24 06:06:12;;;;;;;3.30;2.33;;;;;;;;;;4971405;28;20015;-78
2022/08/24 06:08:39;;;;;;;4.65;2.88;;;;;;;;;;4976726;28;20500;-77
2022/08/24 06:11:05;;;;;;;4.03;2.83;;;;;;;;;;4973243;28;20505;-78
2022/08/24 06:13:32;;;;;;;2.70;2.38;;;;;;;;;;4978157;28;20061;-77
2022/08/24 06:16:16;;;;;;;3.30;2.50;;;;;;;;;;4974649;28;20022;-78
2022/08/24 06:18:42;;;;;;;5.32;2.50;;;;;;;;;;4973544;28;20389;-79
2022/08/24 06:21:15;;;;;;;4.43;2.85;;;;;;;;;;4973962;28;20421;-78
2022/08/24 06:23:43;;;;;;;4.10;2.60;;;;;;;;;;4965306;28;20031;-76
2022/08/24 06:28:55;;;;;;;3.25;2.42;;;;;;;;;;4975730;28;20493;-77
2022/08/24 06:31:23;;;;;;;2.72;2.15;;;;;;;;;;4976017;28;20034;-77
2022/08/24 06:33:49;;;;;;;3.30;2.10;;;;;;;;;;4976065;28;20027;-77
2022/08/24 06:36:15;;;;;;;7.50;2.42;;;;;;;;;;4974902;28;20486;-79
2022/08/24 06:38:42;;;;;;;2.70;2.33;;;;;;;;;;4975186;28;20051;-77
2022/08/24 06:41:09;;;;;;;5.57;2.45;;;;;;;;;;4976466;28;20026;-76
2022/08/24 06:43:36;;;;;;;3.13;2.28;;;;;;;;;;4971099;28;20030;-77
2022/08/24 06:46:02;;;;;;;4.25;2.30;;;;;;;;;;4969825;28;20031;-77
2022/08/24 06:48:29;;;;;;;2.95;2.40;;;;;;;;;;4968004;28;20324;-77
2022/08/24 06:50:56;;;;;;;3.58;2.40;;;;;;;;;;4967710;28;20030;-77
2022/08/24 06:53:22;;;;;;;5.50;2.58;;;;;;;;;;4971730;28;20058;-78
2022/08/24 06:55:49;;;;;;;4.97;2.40;;;;;;;;;;4976885;28;20525;-76
2022/08/24 06:58:15;;;;;;;3.95;2.33;;;;;;;;;;4987189;28;20030;-77
2022/08/24 07:00:42;;;;;;;11.25;2.50;;;;;;;;;;4978608;28;20022;-78
2022/08/24 07:03:08;;;;;;;8.63;2.70;;;;;;;;;;4970383;28;20114;-77
2022/08/24 07:05:34;;;;;;;4.45;2.40;;;;;;;;;;4972246;28;20055;-78
2022/08/24 07:08:01;;;;;;;3.08;2.20;;;;;;;;;;4969633;28;20027;-77
2022/08/24 07:10:27;;;;;;;3.70;2.25;;;;;;;;;;4970587;28;20179;-77
2022/08/24 07:12:53;;;;;;;6.32;2.30;;;;;;;;;;4969534;28;20122;-77
2022/08/24 07:15:19;;;;;;;5.78;2.40;;;;;;;;;;4971008;28;20039;-77
2022/08/24 07:17:46;;;;;;;4.00;2.22;;;;;;;;;;4971594;28;20058;-78
2022/08/24 07:20:12;;;;;;;3.15;2.08;;;;;;;;;;4974241;28;20389;-76
2022/08/24 07:22:39;;;;;;;3.60;2.20;;;;;;;;;;4974176;28;20047;-77
2022/08/24 07:25:05;;;;;;;4.80;2.15;;;;;;;;;;4981616;28;20031;-78
2022/08/24 07:27:33;;;;;;;3.38;2.20;;;;;;;;;;4978821;28;20038;-77
2022/08/24 07:29:59;;;;;;;2.58;2.13;;;;;;;;;;4978294;28;20026;-77
2022/08/24 07:32:26;;;;;;;3.47;2.03;;;;;;;;;;4971736;28;20466;-77
2022/08/24 07:34:52;;;;;;;4.80;2.35;;;;;;;;;;4970942;28;20058;-77
2022/08/24 07:37:18;;;;;;;3.47;2.20;;;;;;;;;;4971398;28;20385;-77
2022/08/24 07:39:44;;;;;;;4.07;2.25;;;;;;;;;;4974937;28;20034;-77
2022/08/24 07:42:11;;;;;;;4.97;2.15;;;;;;;;;;4968331;28;20117;-76
2022/08/24 07:44:37;;;;;;;3.97;2.20;;;;;;;;;;4969864;28;20031;-78
2022/08/24 07:47:05;;;;;;;5.55;2.60;;;;;;;;;;4970539;28;20019;-78
2022/08/24 07:49:31;;;;;;;4.18;2.30;;;;;;;;;;4973607;28;20054;-78
2022/08/24 07:51:58;;;;;;;3.10;2.20;;;;;;;;;;4967164;28;20020;-78
2022/08/24 07:54:24;;;;;;;3.80;2.40;;;;;;;;;;4970588;28;20110;-77
2022/08/24 07:56:51;;;;;;;4.57;2.10;;;;;;;;;;4992939;28;20392;-77
2022/08/24 07:59:17;;;;;;;2.65;1.95;;;;;;;;;;4970174;28;20030;-78
2022/08/24 08:01:43;;;;;;;3.20;1.90;;;;;;;;;;4981342;28;20429;-78
2022/08/24 08:04:09;;;;;;;6.40;2.20;;;;;;;;;;4975120;28;20026;-78
2022/08/24 08:06:36;;;;;;;5.47;2.17;;;;;;;;;;4976024;28;20650;-77
2022/08/24 08:09:03;;;;;;;4.22;2.35;;;;;;;;;;4973195;28;20098;-78
2022/08/24 08:11:30;;;;;;;3.80;2.10;;;;;;;;;;4962455;28;20449;-77
2022/08/24 08:13:56;;;;;;;4.75;2.08;;;;;;;;;;4968539;28;20078;-77
2022/08/24 08:16:22;;;;;;;3.85;2.10;;;;;;;;;;4968849;28;20034;-77
2022/08/24 08:18:48;;;;;;;5.22;2.97;;;;;;;;;;4972261;28;20093;-78
2022/08/24 08:24:17;;;;;;;4.85;2.13;;;;;;;;;;4959152;28;20038;-78
2022/08/24 08:26:49;;;;;;;4.38;2.10;;;;;;;;;;4970563;28;20130;-78
2022/08/24 08:29:17;;;;;;;3.10;1.90;;;;;;;;;;4972210;28;20019;-77
2022/08/24 08:31:43;;;;;;;2.75;1.73;;;;;;;;;;4964428;28;20027;-78
2022/08/24 08:34:09;;;;;;;3.80;1.92;;;;;;;;;;4968698;28;20038;-78
2022/08/24 08:36:39;;;;;;;16.83;2.75;;;;;;;;;;4966146;28;20057;-78
2022/08/24 08:39:06;;;;;;;4.20;1.95;;;;;;;;;;4971162;28;20490;-78
2022/08/24 08:41:32;;;;;;;2.60;2.33;;;;;;;;;;4982084;28;20034;-77
2022/08/24 08:44:18;;;;;;;2.42;2.03;;;;;;;;;;4968400;28;20019;-78
2022/08/24 08:46:44;;;;;;;3.97;2.00;;;;;;;;;;4970446;28;20086;-78
2022/08/24 08:49:29;;;;;;;3.22;1.90;;;;;;;;;;4971754;28;20029;-78
2022/08/24 08:51:55;;;;;;;4.07;2.00;;;;;;;;;;4971580;28;20132;-78
2022/08/24 08:54:39;;;;;;;2.40;1.70;;;;;;;;;;4966089;28;20023;-78
2022/08/24 08:57:24;;;;;;;4.88;2.17;;;;;;;;;;4965625;28;20035;-79
2022/08/24 09:00:09;;;;;;;4.90;3.63;;;;;;;;;;4971778;28;20295;-76
2022/08/24 09:02:38;;;;;;;3.47;2.45;;;;;;;;;;4964049;28;20019;-78
2022/08/24 09:05:23;;;;;;;4.97;2.00;;;;;;;;;;4968274;28;20023;-77
2022/08/24 09:08:05;;;;;;;3.03;2.40;;;;;;;;;;4973747;28;20038;-77
2022/08/24 09:10:50;;;;;;;5.53;2.03;;;;;;;;;;4971912;28;20061;-77
2022/08/24 09:13:22;;;;;;;4.07;2.20;;;;;;;;;;4977076;28;20051;-78
2022/08/24 09:15:48;;;;;;;6.38;2.70;;;;;;;;;;4973114;28;20525;-78
2022/08/24 09:18:17;;;;;;;5.55;2.70;;;;;;;;;;4969680;28;20509;-78
2022/08/24 09:20:56;;;;;;;5.00;2.20;;;;;;;;;;4966528;28;20478;-78
2022/08/24 09:23:22;;;;;;;2.58;1.98;;;;;;;;;;4969778;28;20019;-77
2022/08/24 09:25:57;;;;;;;4.82;1.90;;;;;;;;;;4970948;28;20037;-78
2022/08/24 09:28:29;;;;;;;3.85;2.40;;;;;;;;;;4968808;28;20027;-77
2022/08/24 09:31:02;;;;;;;3.63;2.00;;;;;;;;;;4969473;28;20109;-77
2022/08/24 09:33:36;;;;;;;5.75;1.88;;;;;;;;;;4966057;28;20022;-77
2022/08/24 09:36:05;;;;;;;3.42;2.20;;;;;;;;;;4973592;28;20050;-77
2022/08/24 09:38:31;;;;;;;3.50;2.00;;;;;;;;;;4968214;28;20058;-77
2022/08/24 09:41:16;;;;;;;2.15;1.80;;;;;;;;;;4975517;28;20027;-76
2022/08/24 09:43:42;;;;;;;2.70;1.80;;;;;;;;;;4972681;28;20035;-77
2022/08/24 09:46:11;;;;;;;3.80;1.95;;;;;;;;;;4971608;28;20030;-76
2022/08/24 09:48:38;;;;;;;4.82;2.17;;;;;;;;;;4973340;28;20027;-77
2022/08/24 09:51:13;;;;;;;4.68;2.65;;;;;;;;;;4970139;28;20035;-77
2022/08/24 09:53:59;;;;;;;3.70;1.92;;;;;;;;;;4970428;28;20181;-78
2022/08/24 09:56:46;;;;;;;4.40;2.20;;;;;;;;;;4971191;28;20027;-76
2022/08/24 09:59:28;;;;;;;5.68;3.17;;;;;;;;;;4984707;28;20034;-76
2022/08/24 10:02:05;;;;;;;3.47;1.90;;;;;;;;;;4968692;28;20050;-78
2022/08/24 10:04:36;;;;;;;2.65;1.60;;;;;;;;;;4968358;28;20031;-76
2022/08/24 10:07:25;;;;;;;2.75;1.90;;;;;;;;;;4972980;28;20093;-77
2022/08/24 10:10:00;;;;;;;4.18;2.10;;;;;;;;;;4972362;28;20390;-77
2022/08/24 10:12:33;;;;;;;2.95;1.70;;;;;;;;;;4968266;28;20030;-77
2022/08/24 10:15:10;;;;;;;6.30;2.15;;;;;;;;;;4974148;28;20497;-77
2022/08/24 10:17:45;;;;;;;2.60;1.80;;;;;;;;;;4974048;28;20038;-78
2022/08/24 10:20:26;;;;;;;3.63;1.77;;;;;;;;;;4975072;28;20504;-77
2022/08/24 10:22:54;;;;;;;2.65;1.65;;;;;;;;;;4970991;28;20035;-77
2022/08/24 10:25:30;;;;;;;5.65;1.77;;;;;;;;;;4973589;28;20027;-77
2022/08/24 10:28:15;;;;;;;3.97;2.05;;;;;;;;;;4970826;28;20473;-78
2022/08/24 10:30:55;;;;;;;3.55;2.10;;;;;;;;;;4965380;28;20042;-77
2022/08/24 10:33:30;;;;;;;4.32;2.53;;;;;;;;;;4978262;28;20038;-77
2022/08/24 10:36:12;;;;;;;3.38;1.60;;;;;;;;;;4971192;28;20058;-77
2022/08/24 10:41:48;;;;;;;4.82;2.00;;;;;;;;;;4966135;28;20048;-76
2022/08/24 10:44:17;;;;;;;3.38;1.92;;;;;;;;;;4977241;28;20098;-76
2022/08/24 10:46:48;;;;;;;2.65;1.80;;;;;;;;;;4970081;28;20054;-77
2022/08/24 10:49:14;;;;;;;4.43;1.92;;;;;;;;;;4968444;28;20075;-77
2022/08/24 10:51:43;;;;;;;2.47;1.80;;;;;;;;;;4976638;28;20122;-78
2022/08/24 10:54:13;;;;;;;2.80;1.90;;;;;;;;;;4972640;28;20072;-77
2022/08/24 10:56:42;;;;;;;2.40;2.05;;;;;;;;;;4969614;28;20082;-78
2022/08/24 10:59:14;;;;;;;3.42;2.13;;;;;;;;;;4965669;28;20105;-78
2022/08/24 11:01:58;;;;;;;3.67;2.33;;;;;;;;;;4973040;28;20027;-76
2022/08/24 11:04:29;;;;;;;2.42;2.10;;;;;;;;;;4965014;28;20027;-77
2022/08/24 11:07:09;;;;;;;3.10;2.28;;;;;;;;;;4968508;28;20015;-78
2022/08/24 11:09:52;;;;;;;3.20;2.00;;;;;;;;;;4984767;28;20022;-79
2022/08/24 11:12:28;;;;;;;4.20;1.80;;;;;;;;;;4971224;28;20109;-77
2022/08/24 11:14:55;;;;;;;3.60;2.22;;;;;;;;;;4962603;28;20039;-78
2022/08/24 11:17:23;;;;;;;5.35;1.95;;;;;;;;;;4971448;28;20363;-77
2022/08/24 11:19:50;;;;;;;3.97;1.95;;;;;;;;;;4974260;28;20023;-77
2022/08/24 11:22:26;;;;;;;2.30;1.50;;;;;;;;;;4967525;28;20102;-76
2022/08/24 11:24:54;;;;;;;6.68;1.98;;;;;;;;;;4969812;28;20019;-78
2022/08/24 11:27:27;;;;;;;4.28;1.77;;;;;;;;;;4967299;28;20019;-77
2022/08/24 11:29:55;;;;;;;3.38;1.63;;;;;;;;;;4975444;28;20038;-77
2022/08/24 11:32:38;;;;;;;3.65;1.63;;;;;;;;;;4973825;28;20031;-77
2022/08/24 11:35:14;;;;;;;3.40;1.50;;;;;;;;;;4970581;28;20627;-79
2022/08/24 11:37:41;;;;;;;5.35;2.30;;;;;;;;;;4975556;28;20031;-77
2022/08/24 11:40:08;;;;;;;5.32;1.98;;;;;;;;;;4970483;28;20042;-77
2022/08/24 11:43:03;;;;;;;2.72;1.33;;;;;;;;;;4974310;28;20027;-82
2022/08/24 11:45:44;;;;;;;2.67;1.63;;;;;;;;;;4965046;28;20072;-78
2022/08/24 11:48:29;;;;;;;1.98;1.65;;;;;;;;;;4976383;28;20098;-77
2022/08/24 11:51:02;;;;;;;2.45;1.80;;;;;;;;;;4971116;28;20667;-77
2022/08/24 11:53:48;;;;;;;3.35;2.25;;;;;;;;;;4971290;28;20039;-78
2022/08/24 11:56:22;;;;;;;3.00;1.65;;;;;;;;;;4958494;28;20041;-78
2022/08/24 11:58:53;;;;;;;4.50;1.77;;;;;;;;;;4969330;28;20393;-78
2022/08/24 12:01:29;;;;;;;2.15;1.50;;;;;;;;;;4975453;28;20095;-77
2022/08/24 12:03:59;;;;;;;4.70;1.65;;;;;;;;;;4985858;28;20030;-79
2022/08/24 12:06:40;;;;;;;2.63;1.60;;;;;;;;;;4967010;28;20023;-78
2022/08/24 12:09:25;;;;;;;2.05;1.60;;;;;;;;;;4970913;28;20030;-78
2022/08/24 12:11:51;;;;;;;2.05;1.60;;;;;;;;;;4976511;28;20031;-79
2022/08/24 12:14:32;;;;;;;2.17;1.60;;;;;;;;;;4967322;28;20615;-77
2022/08/24 12:17:04;;;;;;;3.22;1.88;;;;;;;;;;4971853;28;20098;-78
2022/08/24 12:19:32;;;;;;;3.92;1.90;;;;;;;;;;4981248;28;20117;-77
2022/08/24 12:22:01;;;;;;;2.35;1.67;;;;;;;;;;4974038;28;20031;-78
2022/08/24 12:24:33;;;;;;;6.97;2.50;;;;;;;;;;4972668;28;20061;-79
2022/08/24 12:27:11;;;;;;;3.58;1.70;;;;;;;;;;4973457;28;20023;-77
2022/08/24 12:29:47;;;;;;;3.55;1.80;;;;;;;;;;4970533;28;20038;-77
2022/08/24 12:32:36;;;;;;;2.78;1.80;;;;;;;;;;4983616;28;20027;-77
2022/08/24 12:35:09;;;;;;;2.47;2.28;;;;;;;;;;4957909;28;20465;-76
2022/08/24 12:37:35;;;;;;;5.22;2.25;;;;;;;;;;4970263;28;20038;-77
2022/08/24 12:40:06;;;;;;;2.33;1.60;;;;;;;;;;4972196;28;20552;-78
2022/08/24 12:42:44;;;;;;;4.60;1.95;;;;;;;;;;4974450;28;20086;-77
2022/08/24 12:45:11;;;;;;;3.60;1.98;;;;;;;;;;4985049;28;20486;-77
2022/08/24 12:47:41;;;;;;;3.25;1.70;;;;;;;;;;4968016;28;20031;-78
2022/08/24 12:50:11;;;;;;;3.45;1.90;;;;;;;;;;4971138;28;20121;-78
2022/08/24 12:52:44;;;;;;;3.65;2.05;;;;;;;;;;4966059;28;20038;-77
2022/08/24 12:55:16;;;;;;;2.30;1.60;;;;;;;;;;4971356;28;20058;-78
2022/08/24 12:57:50;;;;;;;2.13;1.80;;;;;;;;;;4968787;28;20302;-78
2022/08/24 13:00:21;;;;;;;2.60;1.85;;;;;;;;;;4984173;28;20057;-78
2022/08/24 13:02:54;;;;;;;4.55;1.80;;;;;;;;;;4963703;28;20023;-78
2022/08/24 13:05:21;;;;;;;2.20;1.67;;;;;;;;;;4968313;28;20386;-78
2022/08/24 13:07:48;;;;;;;6.45;2.00;;;;;;;;;;4967889;28;20023;-78
2022/08/24 13:10:14;;;;;;;2.83;2.28;;;;;;;;;;4972672;28;20033;-77
2022/08/24 13:12:40;;;;;;;2.97;1.60;;;;;;;;;;4983304;28;20182;-78
2022/08/24 13:15:27;;;;;;;2.38;1.42;;;;;;;;;;4969362;28;20090;-78
2022/08/24 13:17:59;;;;;;;5.97;1.75;;;;;;;;;;4972393;28;20102;-79
2022/08/24 13:20:37;;;;;;;5.18;1.85;;;;;;;;;;4965499;28;20034;-77
2022/08/24 13:23:03;;;;;;;3.75;1.80;;;;;;;;;;4984564;28;20046;-78
2022/08/24 13:25:50;;;;;;;4.85;1.85;;;;;;;;;;4972679;28;20050;-78
2022/08/24 13:28:20;;;;;;;2.15;1.60;;;;;;;;;;4968702;28;20073;-79
2022/08/24 13:31:07;;;;;;;1.75;1.60;;;;;;;;;;4964718;28;20030;-75
2022/08/24 13:33:33;;;;;;;4.47;2.20;;;;;;;;;;4964089;28;20027;-76
2022/08/24 13:36:18;;;;;;;2.47;1.83;;;;;;;;;;4968351;28;20033;-76
2022/08/24 13:38:49;;;;;;;3.75;1.83;;;;;;;;;;4968288;28;20027;-77
2022/08/24 13:41:15;;;;;;;2.05;1.45;;;;;;;;;;4972984;28;20085;-75
2022/08/24 13:43:53;;;;;;;2.17;1.50;;;;;;;;;;4979621;28;20023;-76
2022/08/24 13:46:40;;;;;;;4.20;1.75;;;;;;;;;;4971946;28;20028;-79
2022/08/24 13:49:12;;;;;;;1.50;1.40;;;;;;;;;;4961886;28;20043;-76
2022/08/24 13:51:48;;;;;;;2.83;1.70;;;;;;;;;;4970730;28;20098;-77
2022/08/24 13:54:23;;;;;;;2.95;1.63;;;;;;;;;;4964758;28;20054;-78
2022/08/24 13:56:56;;;;;;;2.38;1.55;;;;;;;;;;4966633;28;20031;-77
2022/08/24 13:59:45;;;;;;;3.03;1.65;;;;;;;;;;4967262;28;20106;-77
2022/08/24 14:02:11;;;;;;;2.70;1.55;;;;;;;;;;4953611;28;20113;-76
2022/08/24 14:04:51;;;;;;;2.40;1.50;;;;;;;;;;4974241;28;20035;-77
2022/08/24 14:07:20;;;;;;;6.75;1.70;;;;;;;;;;4978275;28;20030;-76
2022/08/24 14:09:52;;;;;;;2.45;1.75;;;;;;;;;;4968675;28;20110;-77
2022/08/24 14:12:22;;;;;;;3.80;1.80;;;;;;;;;;4977257;28;20030;-79
2022/08/24 14:14:50;;;;;;;5.05;1.70;;;;;;;;;;4977671;28;20472;-78
2022/08/24 14:20:09;;;;;;;3.25;1.52;;;;;;;;;;4967458;28;20093;-77
2022/08/24 14:22:55;;;;;;;2.13;1.80;;;;;;;;;;4972992;28;20401;-78
2022/08/24 14:25:25;;;;;;;6.55;1.77;;;;;;;;;;4973652;28;20068;-77
2022/08/24 14:27:54;;;;;;;2.00;1.80;;;;;;;;;;4972239;28;20066;-78
2022/08/24 14:30:22;;;;;;;1.83;1.50;;;;;;;;;;4973922;28;20053;-77
2022/08/24 14:32:57;;;;;;;3.20;1.73;;;;;;;;;;4971634;28;20096;-78
2022/08/24 14:35:33;;;;;;;3.42;1.55;;;;;;;;;;4983840;28;20101;-77
2022/08/24 14:38:08;;;;;;;1.33;1.23;;;;;;;;;;4970973;28;20444;-79
2022/08/24 14:40:37;;;;;;;2.42;1.40;;;;;;;;;;4988905;28;20034;-78
2022/08/24 14:43:23;;;;;;;2.72;1.67;;;;;;;;;;4965841;28;20514;-78
2022/08/24 14:46:00;;;;;;;2.83;1.60;;;;;;;;;;4966951;28;20026;-77
2022/08/24 14:49:01;;;;;;;2.35;1.40;;;;;;;;;;4970419;28;20053;-78
2022/08/24 14:51:45;;;;;;;6.18;2.13;;;;;;;;;;4892759;29;20041;-78
2022/08/24 14:54:24;;;;;;;1.77;1.67;;;;;;;;;;4964271;28;20497;-78
2022/08/24 14:56:50;;;;;;;3.55;1.50;;;;;;;;;;4971963;28;20120;-77
2022/08/24 14:59:29;;;;;;;3.25;1.70;;;;;;;;;;4971493;28;20023;-77
2022/08/24 15:02:13;;;;;;;1.67;1.58;;;;;;;;;;4967176;28;20015;-78
2022/08/24 15:04:45;;;;;;;3.90;2.40;;;;;;;;;;4969678;28;20104;-78
2022/08/24 15:07:20;;;;;;;2.92;1.80;;;;;;;;;;4976870;28;20010;-78
2022/08/24 15:09:47;;;;;;;2.40;1.60;;;;;;;;;;4967861;28;20105;-78
2022/08/24 15:12:22;;;;;;;4.03;1.55;;;;;;;;;;4966229;28;20020;-78
2022/08/24 15:14:52;;;;;;;3.10;1.60;;;;;;;;;;4967101;28;20054;-78
2022/08/24 15:17:23;;;;;;;5.00;1.90;;;;;;;;;;4977127;28;20500;-78